Time;durP1;ratioP1;P1;durP2;ratioP2;P2;SDS_P1;SDS_P2;PMS_P1;PMS_P2;Temp;Humidity;BMP_temperature;BMP_pressure;BME280_temperature;BME280_humidity;BME280_pressure;Samples;Min_cycle;Max_cycle;Signal;HPM_P1;HPM_P2
2022/04/17 00:00:00;;;;;;;8.73;4.03;;;;;;;2.61;64.62;101379.81;4993105;28;20224;-69
2022/04/17 00:02:33;;;;;;;9.57;3.50;;;;;;;2.62;64.89;101376.25;4996540;28;20222;-68
2022/04/17 00:05:01;;;;;;;8.57;3.40;;;;;;;2.62;64.47;101378.88;5007531;28;20697;-68
2022/04/17 00:07:28;;;;;;;9.03;3.63;;;;;;;2.48;64.92;101372.50;5009674;28;20291;-67
2022/04/17 00:09:56;;;;;;;10.00;3.50;;;;;;;2.47;65.01;101365.53;4992998;28;20327;-67
2022/04/17 00:12:26;;;;;;;9.80;3.80;;;;;;;2.35;65.50;101370.50;5007973;28;20321;-68
2022/04/17 00:14:54;;;;;;;10.07;3.90;;;;;;;2.23;65.86;101371.91;5007822;28;20236;-68
2022/04/17 00:17:21;;;;;;;7.17;3.27;;;;;;;2.15;66.36;101363.50;4991853;28;20288;-67
2022/04/17 00:19:48;;;;;;;8.17;3.47;;;;;;;2.16;66.59;101359.97;5009170;28;20322;-66
2022/04/17 00:22:15;;;;;;;10.23;4.17;;;;;;;2.03;67.02;101355.22;4992506;28;20257;-67
2022/04/17 00:24:42;;;;;;;8.33;3.80;;;;;;;2.07;66.73;101363.84;5004757;28;20262;-67
2022/04/17 00:27:09;;;;;;;5.77;3.17;;;;;;;2.00;67.45;101360.63;5009958;28;20242;-66
2022/04/17 00:29:35;;;;;;;8.70;3.83;;;;;;;1.99;67.44;101365.94;5006330;28;20249;-67
2022/04/17 00:32:02;;;;;;;8.70;3.40;;;;;;;1.99;67.87;101363.31;5007336;28;20309;-66
2022/04/17 00:34:30;;;;;;;8.00;3.30;;;;;;;2.00;68.12;101360.63;4990789;28;20225;-66
2022/04/17 00:37:00;;;;;;;8.47;3.40;;;;;;;2.01;68.24;101366.72;5007002;28;20349;-65
2022/04/17 00:39:27;;;;;;;8.23;3.10;;;;;;;1.98;67.65;101365.09;5011429;28;20229;-66
2022/04/17 00:41:54;;;;;;;8.03;3.70;;;;;;;1.92;67.98;101362.75;5006799;28;20257;-66
2022/04/17 00:44:23;;;;;;;9.43;3.53;;;;;;;1.95;67.69;101369.63;5007293;28;20539;-67
2022/04/17 00:46:49;;;;;;;8.57;3.20;;;;;;;1.90;67.58;101364.59;5005878;28;20246;-66
2022/04/17 00:49:16;;;;;;;11.47;3.63;;;;;;;1.93;68.15;101359.19;4991851;28;20222;-65
2022/04/17 00:51:43;;;;;;;8.60;3.90;;;;;;;1.95;67.84;101356.50;5005346;28;20227;-67
2022/04/17 00:54:12;;;;;;;9.20;3.40;;;;;;;1.79;68.62;101361.56;4990469;28;20417;-67
2022/04/17 00:56:38;;;;;;;11.30;3.60;;;;;;;1.78;68.58;101359.84;4989783;28;20223;-67
2022/04/17 00:59:13;;;;;;;7.57;3.47;;;;;;;1.77;69.01;101363.38;4971077;28;20219;-66
2022/04/17 01:01:40;;;;;;;7.77;3.50;;;;;;;1.71;69.12;101359.28;4989514;28;20321;-67
2022/04/17 01:04:07;;;;;;;7.33;3.07;;;;;;;1.70;69.07;101360.16;4986798;28;20821;-65
2022/04/17 01:06:34;;;;;;;9.60;3.57;;;;;;;1.58;69.66;101358.06;4987069;28;20231;-66
2022/04/17 01:09:01;;;;;;;9.63;3.20;;;;;;;1.63;69.18;101356.09;4975804;28;20270;-65
2022/04/17 01:11:27;;;;;;;10.07;3.60;;;;;;;1.69;68.97;101358.47;4986342;28;20237;-65
2022/04/17 01:13:54;;;;;;;9.80;3.50;;;;;;;1.60;69.80;101351.84;4986506;28;20333;-68
2022/04/17 01:16:23;;;;;;;10.37;3.80;;;;;;;1.61;69.25;101348.28;4988210;28;20233;-67
2022/04/17 01:19:00;;;;;;;9.43;3.30;;;;;;;1.51;69.98;101354.00;4990719;28;20215;-67
2022/04/17 01:21:27;;;;;;;7.17;3.37;;;;;;;1.44;69.99;101345.53;4988366;28;20230;-68
2022/04/17 01:29:39;;;;;;;7.17;3.23;;;;;;;1.43;70.30;101338.59;4983318;28;20317;-68
2022/04/17 01:32:08;;;;;;;7.60;3.40;;;;;;;1.47;70.75;101340.16;4967575;28;20230;-67
2022/04/17 01:34:35;;;;;;;8.87;3.30;;;;;;;1.43;70.55;101339.44;4983363;28;20227;-68
2022/04/17 01:37:02;;;;;;;7.47;3.57;;;;;;;1.43;71.09;101328.09;4986583;28;20333;-66
2022/04/17 01:39:29;;;;;;;8.00;3.70;;;;;;;1.47;70.88;101334.91;4987005;28;20223;-67
2022/04/17 01:41:57;;;;;;;11.07;3.67;;;;;;;1.32;71.00;101325.91;4988196;28;21226;-67
2022/04/17 01:44:25;;;;;;;8.40;3.50;;;;;;;1.36;71.35;101326.63;4987913;28;20242;-67
2022/04/17 01:46:52;;;;;;;8.57;3.93;;;;;;;1.27;71.67;101320.88;5000927;28;20222;-66
2022/04/17 01:49:19;;;;;;;8.30;3.63;;;;;;;1.29;71.60;101326.06;4988636;28;20863;-64
2022/04/17 01:51:47;;;;;;;8.73;3.93;;;;;;;1.26;71.77;101327.03;4987450;28;20226;-65
2022/04/17 01:54:15;;;;;;;9.27;4.03;;;;;;;1.20;72.02;101316.78;4987039;28;20969;-67
2022/04/17 01:56:43;;;;;;;10.40;3.97;;;;;;;1.18;72.44;101315.16;4999793;28;20380;-65
2022/04/17 01:59:11;;;;;;;11.30;3.93;;;;;;;1.14;72.40;101322.28;4986643;28;20767;-70
2022/04/17 02:01:38;;;;;;;10.33;3.90;;;;;;;1.04;73.13;101315.72;4989837;28;20227;-66
2022/04/17 02:04:06;;;;;;;7.67;3.80;;;;;;;1.06;73.33;101316.50;4968500;28;20317;-67
2022/04/17 02:06:33;;;;;;;10.37;3.97;;;;;;;1.00;73.45;101309.72;4987419;28;20317;-67
2022/04/17 02:09:01;;;;;;;8.53;3.53;;;;;;;1.07;73.50;101306.88;4986515;28;20785;-67
2022/04/17 02:11:28;;;;;;;9.17;3.67;;;;;;;1.09;73.75;101311.13;4986783;28;20330;-68
2022/04/17 02:13:57;;;;;;;9.60;3.67;;;;;;;1.08;73.23;101313.81;4986280;28;20331;-65
2022/04/17 02:16:24;;;;;;;11.90;3.60;;;;;;;1.13;72.77;101310.09;4987581;28;20427;-66
2022/04/17 02:18:52;;;;;;;10.50;4.00;;;;;;;1.03;73.18;101311.38;5002894;28;20230;-65
2022/04/17 02:21:19;;;;;;;7.03;3.20;;;;;;;1.04;73.36;101315.72;4987301;28;20608;-66
2022/04/17 02:23:46;;;;;;;10.90;3.70;;;;;;;1.14;73.17;101324.91;4987087;28;20390;-66
2022/04/17 02:26:16;;;;;;;9.63;3.70;;;;;;;1.13;73.24;101315.34;4987710;28;20338;-66
2022/04/17 02:28:42;;;;;;;9.77;3.90;;;;;;;1.03;73.97;101311.38;4988670;28;20218;-66
2022/04/17 02:31:10;;;;;;;10.57;3.80;;;;;;;1.00;74.29;101311.50;4986597;28;20214;-68
2022/04/17 02:33:38;;;;;;;13.37;4.00;;;;;;;1.00;74.18;101312.34;4984193;28;22556;-66
2022/04/17 02:36:05;;;;;;;12.90;3.80;;;;;;;0.91;74.74;101306.63;4984802;28;20314;-66
2022/04/17 02:38:32;;;;;;;10.27;3.60;;;;;;;0.79;75.26;101314.06;4987084;28;20884;-66
2022/04/17 02:40:58;;;;;;;6.83;3.60;;;;;;;0.83;75.59;101313.03;4986782;28;20330;-66
2022/04/17 02:43:25;;;;;;;11.53;3.77;;;;;;;0.73;75.91;101314.31;4986657;28;20233;-66
2022/04/17 02:45:52;;;;;;;12.60;3.97;;;;;;;0.64;76.10;101309.44;4986083;28;20218;-68
2022/04/17 02:48:20;;;;;;;7.53;3.90;;;;;;;0.64;76.53;101304.22;4992066;28;20231;-68
2022/04/17 02:50:47;;;;;;;8.73;3.80;;;;;;;0.67;76.76;101314.56;4990792;28;20372;-67
2022/04/17 02:53:14;;;;;;;10.37;3.90;;;;;;;0.75;76.69;101315.13;4989692;28;20230;-67
2022/04/17 02:55:41;;;;;;;8.20;3.40;;;;;;;0.66;77.17;101299.75;4999492;28;20218;-67
2022/04/17 02:58:07;;;;;;;13.43;3.90;;;;;;;0.57;78.12;101307.97;5010668;28;20306;-67
2022/04/17 03:05:35;;;;;;;7.00;3.63;;;;;;;0.57;77.38;101300.13;5009508;28;20219;-67
2022/04/17 03:06:10;;;;;;;9.53;3.87;;;;;;;0.48;78.40;101301.31;5008689;28;20712;-66
2022/04/17 03:08:39;;;;;;;7.80;3.70;;;;;;;0.55;78.39;101299.31;5010943;28;20221;-66
2022/04/17 03:11:05;;;;;;;10.73;3.83;;;;;;;0.56;78.84;101295.78;5009925;28;20222;-67
2022/04/17 03:13:32;;;;;;;11.30;3.90;;;;;;;0.57;78.83;101300.97;5010440;28;20329;-66
2022/04/17 03:15:59;;;;;;;8.53;3.40;;;;;;;0.68;78.23;101295.31;5010733;28;20712;-67
2022/04/17 03:18:25;;;;;;;16.60;3.87;;;;;;;0.66;78.57;101299.75;5010087;28;20328;-66
2022/04/17 03:20:52;;;;;;;9.97;4.13;;;;;;;0.70;78.95;101303.94;5008673;28;20236;-65
2022/04/17 03:23:18;;;;;;;7.50;3.37;;;;;;;0.66;79.63;101302.38;5009345;28;20238;-66
2022/04/17 03:25:45;;;;;;;10.00;3.60;;;;;;;0.78;79.11;101304.50;5010053;28;20310;-66
2022/04/17 03:28:11;;;;;;;8.83;3.47;;;;;;;0.69;79.05;101310.13;5009133;28;20300;-65
2022/04/17 03:30:38;;;;;;;8.60;3.43;;;;;;;0.80;78.97;101310.56;5010396;28;20240;-66
2022/04/17 03:33:04;;;;;;;12.03;3.90;;;;;;;0.76;79.28;101310.72;5007290;28;20253;-67
2022/04/17 03:35:32;;;;;;;12.07;3.50;;;;;;;0.80;79.50;101318.41;5009861;28;20229;-66
2022/04/17 03:38:00;;;;;;;7.93;3.50;;;;;;;0.87;78.66;101319.03;5007538;28;20305;-66
2022/04/17 03:40:29;;;;;;;9.03;3.37;;;;;;;0.97;78.56;101319.50;4977214;28;20230;-66
2022/04/17 03:42:58;;;;;;;8.37;3.83;;;;;;;0.97;78.57;101316.88;5006938;28;20233;-67
2022/04/17 03:45:24;;;;;;;8.10;3.40;;;;;;;1.02;78.92;101322.78;5009739;28;20589;-66
2022/04/17 03:47:51;;;;;;;7.43;3.40;;;;;;;1.09;78.71;101315.53;4999682;28;20341;-66
2022/04/17 03:50:18;;;;;;;9.30;3.40;;;;;;;1.14;78.86;101316.19;4996776;28;20231;-65
2022/04/17 03:52:47;;;;;;;11.10;4.03;;;;;;;1.11;78.68;101311.94;4970120;28;20644;-66
2022/04/17 03:55:18;;;;;;;8.60;4.00;;;;;;;0.97;79.09;101317.72;4993730;28;20526;-68
2022/04/17 03:57:45;;;;;;;8.73;3.90;;;;;;;1.00;78.76;101311.50;5006404;28;21256;-66
2022/04/17 04:00:13;;;;;;;8.07;3.63;;;;;;;0.99;79.19;101318.53;5010955;28;20264;-67
2022/04/17 04:02:42;;;;;;;8.43;3.70;;;;;;;1.07;79.52;101310.34;4993557;28;20321;-67
2022/04/17 04:05:10;;;;;;;8.57;3.37;;;;;;;1.15;79.63;101315.28;5007931;28;20330;-67
2022/04/17 04:07:37;;;;;;;9.20;3.77;;;;;;;1.24;79.18;101318.38;4992203;28;20249;-67
2022/04/17 04:10:05;;;;;;;12.13;3.87;;;;;;;1.22;79.21;101314.13;4975507;28;20308;-68
2022/04/17 04:12:32;;;;;;;10.37;3.87;;;;;;;1.29;79.23;101312.94;4993155;28;20769;-67
2022/04/17 04:14:59;;;;;;;7.50;3.80;;;;;;;1.24;79.12;101313.13;5008202;28;20218;-66
2022/04/17 04:17:26;;;;;;;10.37;4.53;;;;;;;1.21;79.45;101310.63;4978446;28;20223;-66
2022/04/17 04:19:52;;;;;;;8.70;3.73;;;;;;;1.27;79.45;101309.53;5009279;28;20312;-66
2022/04/17 04:22:20;;;;;;;12.23;4.17;;;;;;;1.23;79.64;101305.31;5007825;28;20349;-66
2022/04/17 04:24:47;;;;;;;7.67;3.77;;;;;;;1.21;80.28;101308.00;5009507;28;21215;-66
2022/04/17 04:29:59;;;;;;;12.40;3.93;;;;;;;1.49;79.47;101314.72;4993748;28;20230;-67
2022/04/17 04:32:25;;;;;;;12.67;4.10;;;;;;;1.31;80.26;101312.88;4993087;28;20218;-66
2022/04/17 04:34:57;;;;;;;12.33;4.03;;;;;;;1.39;80.03;101310.78;5007898;28;20705;-66
2022/04/17 04:37:23;;;;;;;9.30;4.27;;;;;;;1.37;80.17;101317.88;5007093;28;20218;-65
2022/04/17 04:39:50;;;;;;;11.00;4.70;;;;;;;1.63;79.78;101319.38;5007252;28;20230;-66
2022/04/17 04:42:17;;;;;;;8.53;4.23;;;;;;;1.83;79.09;101316.75;4989226;28;20685;-66
2022/04/17 04:44:43;;;;;;;8.83;4.00;;;;;;;1.79;78.71;101314.31;4990244;28;20706;-66
2022/04/17 04:47:10;;;;;;;9.40;4.00;;;;;;;1.76;78.65;101319.72;5005814;28;20436;-66
2022/04/17 04:49:36;;;;;;;7.40;3.77;;;;;;;1.69;78.92;101319.97;5008759;28;20313;-66
2022/04/17 04:52:03;;;;;;;7.97;3.93;;;;;;;1.57;79.77;101327.50;5008480;28;20959;-67
2022/04/17 04:54:30;;;;;;;8.63;4.07;;;;;;;1.68;79.95;101334.00;4989721;28;20815;-67
2022/04/17 04:56:58;;;;;;;12.87;3.90;;;;;;;1.68;79.71;101322.66;4988167;28;20322;-66
2022/04/17 04:59:25;;;;;;;11.77;3.77;;;;;;;1.78;79.59;101318.72;4972453;28;20226;-66
2022/04/17 05:01:51;;;;;;;8.73;3.47;;;;;;;1.83;79.29;101319.38;4971595;28;20237;-65
2022/04/17 05:04:20;;;;;;;12.83;4.60;;;;;;;1.76;79.60;101320.56;4970475;28;20235;-66
2022/04/17 05:06:47;;;;;;;8.90;4.27;;;;;;;1.77;79.71;101321.41;4973747;28;20611;-65
2022/04/17 05:09:13;;;;;;;11.73;4.57;;;;;;;1.74;80.43;101322.41;4969604;28;20310;-65
2022/04/17 05:11:40;;;;;;;9.53;4.03;;;;;;;1.74;80.53;101330.28;4972246;28;20313;-66
2022/04/17 05:14:08;;;;;;;11.67;4.70;;;;;;;1.71;80.29;101316.41;4953822;28;20259;-67
2022/04/17 05:16:35;;;;;;;15.50;4.77;;;;;;;1.51;81.40;101328.63;4971790;28;20852;-67
2022/04/17 05:19:20;;;;;;;8.00;3.83;;;;;;;1.57;81.44;101330.13;4986798;28;20223;-68
2022/04/17 05:21:48;;;;;;;9.67;4.17;;;;;;;1.25;83.14;101325.31;4985845;28;20875;-68
2022/04/17 05:24:16;;;;;;;11.00;4.77;;;;;;;1.33;82.95;101321.53;4986558;28;21099;-67
2022/04/17 05:26:43;;;;;;;12.17;4.10;;;;;;;1.56;82.33;101326.66;4986966;28;20222;-67
2022/04/17 05:29:09;;;;;;;11.17;4.90;;;;;;;1.76;81.63;101324.97;4953235;28;22559;-67
2022/04/17 05:31:36;;;;;;;10.70;4.10;;;;;;;1.84;81.44;101322.84;4953215;28;20233;-67
2022/04/17 05:34:03;;;;;;;10.33;4.27;;;;;;;1.94;81.26;101325.91;4986450;28;20286;-66
2022/04/17 05:36:29;;;;;;;11.00;4.20;;;;;;;2.02;80.84;101326.44;4987722;28;20341;-70
2022/04/17 05:38:56;;;;;;;13.30;4.70;;;;;;;2.03;81.15;101328.97;4985033;28;20269;-67
2022/04/17 05:41:23;;;;;;;10.20;4.60;;;;;;;2.08;80.80;101327.03;4985489;28;20654;-65
2022/04/17 05:43:50;;;;;;;10.00;3.87;;;;;;;2.32;79.92;101324.22;4985469;28;20231;-66
2022/04/17 05:46:17;;;;;;;12.87;4.20;;;;;;;2.39;79.89;101330.00;4985169;28;20318;-68
2022/04/17 05:48:44;;;;;;;11.60;4.50;;;;;;;2.48;79.27;101325.22;4985079;28;20219;-65
2022/04/17 05:51:11;;;;;;;14.27;4.90;;;;;;;2.63;78.86;101325.41;4969472;28;20234;-65
2022/04/17 05:53:37;;;;;;;15.60;4.40;;;;;;;2.68;78.53;101326.88;4984841;28;20223;-67
2022/04/17 05:56:04;;;;;;;9.80;4.27;;;;;;;2.69;78.76;101322.47;4997904;28;20335;-64
2022/04/17 05:58:31;;;;;;;14.10;3.87;;;;;;;2.71;79.07;101323.25;4988451;28;20660;-66
2022/04/17 06:00:57;;;;;;;8.23;3.87;;;;;;;2.69;78.62;101327.72;5006624;28;20226;-66
2022/04/17 06:03:25;;;;;;;11.10;4.30;;;;;;;2.71;78.60;101328.50;4988677;28;20592;-65
2022/04/17 06:05:52;;;;;;;9.50;4.00;;;;;;;2.74;78.74;101323.13;5007638;28;20249;-65
2022/04/17 06:08:19;;;;;;;13.80;4.50;;;;;;;2.98;77.59;101328.16;4982943;28;20971;-68
2022/04/17 06:10:46;;;;;;;12.53;4.93;;;;;;;3.07;77.57;101332.97;4988837;28;20628;-67
2022/04/17 06:13:12;;;;;;;12.50;4.67;;;;;;;3.21;76.83;101335.75;4976311;28;20333;-68
2022/04/17 06:15:40;;;;;;;11.80;4.80;;;;;;;3.47;75.81;101330.97;4969614;28;20229;-66
2022/04/17 06:18:07;;;;;;;9.43;4.50;;;;;;;3.50;75.22;101338.72;4983236;28;20229;-68
2022/04/17 06:20:34;;;;;;;11.10;4.20;;;;;;;3.73;73.90;101341.03;4983010;28;20269;-67
2022/04/17 06:23:00;;;;;;;8.97;3.77;;;;;;;3.80;73.21;101339.78;4323798;28;21308;-68
2022/04/17 06:25:29;;;;;;;10.27;3.97;;;;;;;3.86;72.80;101338.59;4191911;28;21454;-67
2022/04/17 06:27:56;;;;;;;11.87;4.20;;;;;;;4.32;71.75;101340.59;4201307;28;21681;-66
2022/04/17 06:30:27;;;;;;;12.97;4.10;;;;;;;4.32;70.13;101345.88;4201738;28;22305;-65
2022/04/17 06:32:54;;;;;;;9.67;3.87;;;;;;;4.39;70.06;101341.97;4228573;28;21841;-65
2022/04/17 06:35:21;;;;;;;10.80;3.57;;;;;;;4.65;69.66;101338.75;4240269;28;20405;-65
2022/04/17 06:37:49;;;;;;;10.10;3.73;;;;;;;4.75;69.01;101351.44;4285920;28;21767;-67
2022/04/17 06:40:17;;;;;;;7.13;3.53;;;;;;;5.10;67.17;101348.59;4223560;28;20524;-64
2022/04/17 06:42:48;;;;;;;10.13;4.30;;;;;;;5.44;66.29;101342.25;4797013;23;20735;-70
2022/04/17 06:45:15;;;;;;;8.30;3.87;;;;;;;6.24;64.55;101346.25;4977124;28;20238;-70
2022/04/17 06:47:42;;;;;;;8.40;3.87;;;;;;;6.96;59.85;101351.44;4966462;28;20341;-68
2022/04/17 06:50:14;;;;;;;6.40;3.43;;;;;;;7.92;56.48;101356.56;4964787;28;20231;-70
2022/04/17 06:52:41;;;;;;;9.93;2.93;;;;;;;8.46;53.64;101359.00;4965921;28;20239;-68
2022/04/17 06:55:11;;;;;;;10.13;3.50;;;;;;;8.80;52.16;101360.13;4971994;28;20769;-67
2022/04/17 06:57:43;;;;;;;7.60;3.73;;;;;;;9.21;49.56;101361.53;4997298;28;20223;-69
2022/04/17 07:00:11;;;;;;;8.43;3.97;;;;;;;9.89;48.22;101375.91;4985862;28;20254;-72
2022/04/17 07:02:41;;;;;;;9.23;3.77;;;;;;;11.03;45.19;101384.75;4978263;28;20227;-70
2022/04/17 07:05:09;;;;;;;7.10;3.53;;;;;;;11.76;42.34;101384.03;5003080;28;20226;-70
2022/04/17 07:07:36;;;;;;;9.00;3.40;;;;;;;12.49;39.31;101389.38;4988739;28;20219;-70
2022/04/17 07:10:03;;;;;;;6.10;3.50;;;;;;;11.84;40.16;101383.38;4980968;28;20873;-69
2022/04/17 07:12:30;;;;;;;8.43;3.73;;;;;;;11.89;39.61;101388.34;4990560;28;20218;-70
2022/04/17 07:15:00;;;;;;;7.23;3.50;;;;;;;11.52;40.64;101389.59;4966694;28;20328;-69
2022/04/17 07:17:35;;;;;;;13.73;4.70;;;;;;;11.87;40.79;101384.91;4991464;28;20226;-69
2022/04/17 07:20:07;;;;;;;8.67;3.63;;;;;;;12.53;40.00;101380.13;4986419;28;20218;-75
2022/04/17 07:22:34;;;;;;;8.67;3.50;;;;;;;15.13;34.38;101397.06;5008900;28;20257;-76
2022/04/17 07:25:02;;;;;;;5.57;3.00;;;;;;;14.66;32.91;101399.84;4991531;28;20237;-77
2022/04/17 07:27:34;;;;;;;5.17;2.93;;;;;;;15.57;32.30;101399.84;4987467;28;20227;-77
2022/04/17 07:30:01;;;;;;;6.13;3.30;;;;;;;17.32;29.44;101406.88;5005868;28;20388;-78
2022/04/17 07:32:29;;;;;;;5.83;2.90;;;;;;;18.82;27.22;101411.81;5005347;28;20234;-76
2022/04/17 07:34:56;;;;;;;7.07;3.20;;;;;;;18.83;26.28;101407.28;5008198;28;20317;-74
2022/04/17 07:37:27;;;;;;;7.53;3.27;;;;;;;18.26;27.41;101400.16;4984884;28;20222;-78
2022/04/17 07:39:53;;;;;;;7.13;3.20;;;;;;;18.08;26.75;101403.91;5008623;28;20314;-80
2022/04/17 07:42:21;;;;;;;9.67;3.50;;;;;;;16.27;29.17;101385.59;4991095;28;20245;-81
2022/04/17 07:44:51;;;;;;;8.67;3.53;;;;;;;16.44;30.29;101383.88;4990524;28;20262;-80
2022/04/17 07:47:17;;;;;;;5.87;3.23;;;;;;;19.08;26.30;101395.34;5006071;28;20354;-78
2022/04/17 07:49:44;;;;;;;7.03;2.93;;;;;;;19.25;25.06;101398.78;4988378;28;20240;-84
2022/04/17 07:52:11;;;;;;;7.43;2.97;;;;;;;19.86;24.62;101403.41;5009293;28;20489;-81
2022/04/17 07:54:39;;;;;;;8.70;3.27;;;;;;;19.25;24.44;101392.53;5010609;28;20230;-82
2022/04/17 07:57:06;;;;;;;6.80;3.30;;;;;;;18.70;25.70;101380.81;5007123;28;21124;-85
2022/04/17 07:59:33;;;;;;;7.33;3.73;;;;;;;16.51;28.35;101373.31;4978620;28;20293;-76
2022/04/17 08:02:27;;;;;;;5.97;3.33;;;;;;;14.43;32.89;101363.69;5003940;28;20245;-79
2022/04/17 08:04:56;;;;;;;8.37;3.40;;;;;;;14.03;33.81;101357.63;4991669;28;20233;-78
2022/04/17 08:07:23;;;;;;;5.93;3.00;;;;;;;14.13;34.45;101349.56;4975091;28;20908;-71
2022/04/17 08:09:50;;;;;;;7.50;3.73;;;;;;;13.54;34.53;101348.00;5006270;28;20226;-76
2022/04/17 08:12:23;;;;;;;6.70;3.40;;;;;;;12.94;35.59;101353.41;4976152;28;20616;-77
2022/04/17 08:14:49;;;;;;;7.23;3.00;;;;;;;11.89;38.90;101346.50;5002485;28;20279;-73
2022/04/17 08:17:17;;;;;;;10.07;3.30;;;;;;;12.28;37.28;101345.88;5003067;28;20312;-68
2022/04/17 08:19:44;;;;;;;7.10;3.10;;;;;;;12.06;37.18;101334.41;5000760;28;20244;-71
2022/04/17 08:22:10;;;;;;;11.97;3.90;;;;;;;11.05;39.13;101334.88;5005205;28;20227;-68
2022/04/17 08:24:37;;;;;;;9.03;3.67;;;;;;;10.07;43.58;101319.63;5002697;28;20227;-69
2022/04/17 08:27:03;;;;;;;8.33;3.67;;;;;;;10.54;42.61;101323.88;5004340;28;20230;-78
2022/04/17 08:29:32;;;;;;;8.17;3.60;;;;;;;10.73;42.77;101333.03;5006537;28;20253;-80
2022/04/17 08:31:58;;;;;;;11.80;5.50;;;;;;;11.32;41.13;101339.75;5002980;28;20314;-75
2022/04/17 08:34:25;;;;;;;7.27;3.53;;;;;;;11.86;39.28;101338.75;5004893;28;20230;-74
2022/04/17 08:36:51;;;;;;;7.50;3.23;;;;;;;11.50;38.12;101340.91;5005537;28;20226;-73
2022/04/17 08:39:18;;;;;;;6.83;2.73;;;;;;;11.20;38.48;101337.13;5004398;28;20293;-73
2022/04/17 08:41:46;;;;;;;7.43;3.00;;;;;;;11.55;39.33;101332.50;5004292;28;20269;-77
2022/04/17 08:44:13;;;;;;;6.97;3.17;;;;;;;11.91;38.38;101335.72;4990739;28;20317;-75
2022/04/17 08:46:41;;;;;;;9.30;2.97;;;;;;;11.90;37.78;101324.22;5006615;28;20272;-76
2022/04/17 08:49:11;;;;;;;6.73;3.20;;;;;;;11.32;37.36;101327.28;4989157;28;20829;-75
2022/04/17 08:51:39;;;;;;;7.60;3.27;;;;;;;10.59;38.36;101314.69;5006457;28;20922;-72
2022/04/17 08:54:06;;;;;;;9.00;3.20;;;;;;;10.57;40.25;101314.78;4991795;28;20222;-76
2022/04/17 08:56:36;;;;;;;6.07;3.30;;;;;;;11.17;40.55;101308.09;5006006;28;20264;-77
2022/04/17 08:59:03;;;;;;;6.87;3.37;;;;;;;11.26;40.36;101303.81;5003433;28;20309;-78
2022/04/17 09:01:30;;;;;;;9.03;2.93;;;;;;;11.56;37.16;101310.19;5006390;28;20522;-74
2022/04/17 09:03:56;;;;;;;5.57;2.93;;;;;;;11.02;36.51;101308.50;5005089;28;20316;-74
2022/04/17 09:06:23;;;;;;;6.60;3.20;;;;;;;10.81;37.43;101295.97;4990917;28;20258;-71
2022/04/17 09:09:00;;;;;;;6.90;3.47;;;;;;;10.01;39.36;101289.03;4989818;28;20265;-76
2022/04/17 09:11:28;;;;;;;5.03;3.70;;;;;;;9.41;41.41;101285.69;5006159;28;20225;-77
2022/04/17 09:13:57;;;;;;;6.63;3.50;;;;;;;9.27;42.64;101277.88;5004639;28;20839;-75
2022/04/17 09:16:34;;;;;;;7.23;3.00;;;;;;;10.00;42.42;101279.38;5000469;28;20219;-73
2022/04/17 09:19:13;;;;;;;7.20;3.70;;;;;;;10.04;41.91;101271.97;4986851;28;20663;-72
2022/04/17 09:21:40;;;;;;;7.70;3.60;;;;;;;10.11;40.75;101273.19;5004820;28;20295;-73
2022/04/17 09:24:25;;;;;;;5.67;3.20;;;;;;;9.76;41.13;101271.47;5002750;28;20789;-67
2022/04/17 09:26:54;;;;;;;7.87;3.67;;;;;;;9.65;41.80;101255.53;5002864;28;20230;-69
2022/04/17 09:29:24;;;;;;;5.87;3.47;;;;;;;9.54;43.60;101256.34;5003858;28;21105;-66
2022/04/17 09:32:01;;;;;;;5.97;3.57;;;;;;;8.97;45.50;101254.50;4989992;28;20321;-70
2022/04/17 09:34:41;;;;;;;7.17;4.00;;;;;;;9.60;44.40;101244.41;4975143;28;20240;-72
2022/04/17 09:37:35;;;;;;;6.53;3.57;;;;;;;9.80;44.25;101248.19;5002237;28;20210;-70
2022/04/17 09:40:06;;;;;;;8.50;3.90;;;;;;;9.69;42.99;101247.22;5004235;28;20381;-68
2022/04/17 09:42:33;;;;;;;5.67;3.53;;;;;;;9.66;41.65;101242.13;5005426;28;20782;-72
2022/04/17 09:45:01;;;;;;;5.30;3.30;;;;;;;9.78;42.72;101234.16;4976830;28;20296;-72
2022/04/17 09:47:28;;;;;;;5.87;3.70;;;;;;;9.42;44.76;101233.41;5003893;28;20245;-71
2022/04/17 09:50:03;;;;;;;6.63;3.70;;;;;;;9.28;44.27;101229.13;4999680;28;20231;-70
2022/04/17 09:52:35;;;;;;;6.40;3.73;;;;;;;9.15;43.16;101229.22;5001066;28;20222;-71
2022/04/17 09:55:03;;;;;;;11.40;2.57;;;;;;;9.26;39.43;101213.31;4988206;28;20222;-72
2022/04/17 09:57:41;;;;;;;5.67;2.67;;;;;;;9.81;40.58;101218.81;4999863;28;22520;-68
2022/04/17 10:00:16;;;;;;;5.43;3.17;;;;;;;9.92;40.08;101209.97;5002455;28;20254;-73
2022/04/17 10:02:44;;;;;;;5.97;2.90;;;;;;;10.07;39.81;101207.94;5004128;28;20292;-71
2022/04/17 10:05:13;;;;;;;5.97;3.20;;;;;;;9.98;41.00;101204.19;5002521;28;20321;-70
2022/04/17 10:07:44;;;;;;;4.70;2.70;;;;;;;10.26;39.04;101204.63;4987597;28;20234;-75
2022/04/17 10:10:12;;;;;;;6.17;3.13;;;;;;;10.12;39.12;101206.59;5002729;28;20218;-77
2022/04/17 10:12:41;;;;;;;7.20;3.20;;;;;;;10.07;38.62;101206.13;5002963;28;20289;-72
2022/04/17 10:15:08;;;;;;;4.17;2.83;;;;;;;10.01;37.59;101198.63;5001136;28;20768;-71
2022/04/17 10:17:36;;;;;;;4.20;2.37;;;;;;;9.98;37.06;101188.25;4986484;28;20234;-72
2022/04/17 10:20:06;;;;;;;4.80;2.57;;;;;;;10.12;37.72;101189.78;4971347;28;20234;-72
2022/04/17 10:22:34;;;;;;;5.47;2.93;;;;;;;10.29;36.32;101191.13;5004587;28;20905;-72
2022/04/17 10:25:03;;;;;;;4.80;2.43;;;;;;;10.16;36.44;101191.25;5000290;28;20759;-73
2022/04/17 10:27:37;;;;;;;2.83;1.70;;;;;;;10.32;33.85;101180.22;5001762;28;20708;-72
2022/04/17 10:30:15;;;;;;;4.50;2.57;;;;;;;10.53;34.81;101178.44;4982036;28;21262;-72
2022/04/17 10:33:21;;;;;;;4.27;2.10;;;;;;;10.34;35.71;101170.28;4986903;28;20768;-69
2022/04/17 10:36:12;;;;;;;4.77;2.80;;;;;;;10.19;36.73;101161.72;4983562;28;20226;-76
2022/04/17 10:38:50;;;;;;;4.27;2.20;;;;;;;10.27;35.13;101169.06;4989158;28;20233;-75
2022/04/17 10:41:16;;;;;;;3.30;2.13;;;;;;;10.11;33.91;101167.69;5002187;28;20230;-78
2022/04/17 10:43:43;;;;;;;3.43;1.83;;;;;;;9.94;32.54;101161.03;4990503;28;20279;-78
2022/04/17 10:46:22;;;;;;;5.27;2.20;;;;;;;10.13;33.33;101157.72;5003229;28;20233;-76
2022/04/17 10:49:00;;;;;;;3.57;1.93;;;;;;;9.98;32.55;101151.00;5002531;28;20226;-76
2022/04/17 10:51:27;;;;;;;3.73;2.10;;;;;;;9.81;33.83;101143.53;5003531;28;20222;-73
2022/04/17 10:54:06;;;;;;;3.57;1.83;;;;;;;9.99;33.07;101143.88;5002641;28;20328;-69
2022/04/17 10:56:38;;;;;;;2.60;1.70;;;;;;;9.99;33.15;101135.91;4987879;28;20326;-70
2022/04/17 10:59:15;;;;;;;4.83;2.10;;;;;;;9.68;33.70;101123.25;5004553;28;20313;-72
2022/04/17 11:01:51;;;;;;;3.40;1.90;;;;;;;10.09;32.57;101131.50;4973236;28;20222;-77
2022/04/17 11:04:21;;;;;;;3.73;1.83;;;;;;;10.33;33.08;101134.03;5002817;28;20692;-75
2022/04/17 11:07:17;;;;;;;3.57;1.87;;;;;;;10.43;32.91;101134.13;5001714;28;20281;-71
2022/04/17 11:09:46;;;;;;;4.63;2.00;;;;;;;10.63;32.14;101132.44;4991900;28;20313;-70
2022/04/17 11:12:19;;;;;;;3.97;1.70;;;;;;;10.35;30.91;101111.66;5006136;28;20218;-67
2022/04/17 11:14:54;;;;;;;3.90;1.80;;;;;;;10.34;31.70;101115.25;5006665;28;20835;-78
2022/04/17 11:17:24;;;;;;;2.83;1.67;;;;;;;10.62;29.80;101106.81;5007101;28;20231;-68
2022/04/17 11:20:00;;;;;;;2.70;1.53;;;;;;;10.57;30.24;101105.38;4991422;28;20245;-71
2022/04/17 11:22:33;;;;;;;4.70;2.13;;;;;;;10.45;30.72;101106.41;4994210;28;20276;-71
2022/04/17 11:25:02;;;;;;;3.50;1.80;;;;;;;10.40;31.51;101103.28;5007590;28;20644;-69
2022/04/17 11:27:48;;;;;;;4.43;1.80;;;;;;;10.47;31.56;101104.47;4976500;28;20997;-72
2022/04/17 11:30:35;;;;;;;3.23;1.40;;;;;;;10.62;31.67;101105.00;5006899;28;21234;-70
2022/04/17 11:33:02;;;;;;;2.87;1.63;;;;;;;10.31;31.15;101091.59;4975714;28;20569;-70
2022/04/17 11:35:30;;;;;;;4.33;1.97;;;;;;;9.95;28.77;101084.81;4987140;28;20304;-69
2022/04/17 11:38:02;;;;;;;4.60;1.57;;;;;;;10.26;30.85;101082.28;4993527;28;20230;-70
2022/04/17 11:40:31;;;;;;;3.43;1.63;;;;;;;10.77;30.19;101077.09;5004866;28;20744;-68
2022/04/17 11:43:05;;;;;;;2.70;1.80;;;;;;;10.83;29.23;101082.88;4998315;28;20223;-69
2022/04/17 11:45:32;;;;;;;3.17;1.60;;;;;;;10.39;29.39;101074.13;4988833;28;20288;-70
2022/04/17 11:48:03;;;;;;;4.33;2.00;;;;;;;10.47;30.66;101064.56;5003523;28;20218;-69